sensor_id;sensor_type;location;lat;lon;timestamp;temperature;humidity
22436;DHT22;11385;50.822;4.324;2023-07-31T00:01:37;17.70;99.90
22436;DHT22;11385;50.822;4.324;2023-07-31T00:04:03;17.80;99.90
22436;DHT22;11385;50.822;4.324;2023-07-31T00:06:30;17.90;99.90
22436;DHT22;11385;50.822;4.324;2023-07-31T00:08:56;17.90;99.90
22436;DHT22;11385;50.822;4.324;2023-07-31T00:11:23;17.80;99.90
22436;DHT22;11385;50.822;4.324;2023-07-31T00:13:50;17.70;99.90
22436;DHT22;11385;50.822;4.324;2023-07-31T00:16:16;17.80;99.90
22436;DHT22;11385;50.822;4.324;2023-07-31T00:18:43;17.80;99.90
22436;DHT22;11385;50.822;4.324;2023-07-31T00:21:09;17.80;99.90
22436;DHT22;11385;50.822;4.324;2023-07-31T00:23:36;17.60;99.90
22436;DHT22;11385;50.822;4.324;2023-07-31T00:26:03;17.70;99.90
22436;DHT22;11385;50.822;4.324;2023-07-31T00:28:29;17.70;99.90
22436;DHT22;11385;50.822;4.324;2023-07-31T00:30:56;17.70;99.90
22436;DHT22;11385;50.822;4.324;2023-07-31T00:33:22;17.70;99.90
22436;DHT22;11385;50.822;4.324;2023-07-31T00:35:49;17.70;99.90
22436;DHT22;11385;50.822;4.324;2023-07-31T00:38:16;17.70;99.90
22436;DHT22;11385;50.822;4.324;2023-07-31T00:40:42;17.80;99.90
22436;DHT22;11385;50.822;4.324;2023-07-31T00:43:09;17.80;99.90
22436;DHT22;11385;50.822;4.324;2023-07-31T00:45:36;18.00;99.90
22436;DHT22;11385;50.822;4.324;2023-07-31T00:48:03;17.90;99.90
22436;DHT22;11385;50.822;4.324;2023-07-31T00:50:33;17.80;99.90
22436;DHT22;11385;50.822;4.324;2023-07-31T00:53:00;17.80;99.90
22436;DHT22;11385;50.822;4.324;2023-07-31T00:55:26;17.80;99.90
22436;DHT22;11385;50.822;4.324;2023-07-31T00:57:53;17.80;99.90
22436;DHT22;11385;50.822;4.324;2023-07-31T01:00:21;17.80;99.90
22436;DHT22;11385;50.822;4.324;2023-07-31T01:02:49;17.80;99.90
22436;DHT22;11385;50.822;4.324;2023-07-31T01:05:19;17.80;99.90
22436;DHT22;11385;50.822;4.324;2023-07-31T01:08:09;17.90;99.90
22436;DHT22;11385;50.822;4.324;2023-07-31T01:10:41;17.80;99.90
22436;DHT22;11385;50.822;4.324;2023-07-31T01:13:06;17.90;99.90
22436;DHT22;11385;50.822;4.324;2023-07-31T01:15:33;17.80;99.90
22436;DHT22;11385;50.822;4.324;2023-07-31T01:17:59;17.80;99.90
22436;DHT22;11385;50.822;4.324;2023-07-31T01:20:27;17.80;99.90
22436;DHT22;11385;50.822;4.324;2023-07-31T01:23:37;17.70;99.90
22436;DHT22;11385;50.822;4.324;2023-07-31T01:26:03;17.80;99.90
22436;DHT22;11385;50.822;4.324;2023-07-31T01:28:45;17.70;99.90
22436;DHT22;11385;50.822;4.324;2023-07-31T01:31:18;17.70;99.90
22436;DHT22;11385;50.822;4.324;2023-07-31T01:33:45;17.70;99.90
22436;DHT22;11385;50.822;4.324;2023-07-31T01:36:12;17.80;99.90
22436;DHT22;11385;50.822;4.324;2023-07-31T01:38:39;17.90;99.90
22436;DHT22;11385;50.822;4.324;2023-07-31T01:41:06;17.90;99.90
22436;DHT22;11385;50.822;4.324;2023-07-31T01:43:33;18.00;99.90
22436;DHT22;11385;50.822;4.324;2023-07-31T01:45:59;18.10;99.90
22436;DHT22;11385;50.822;4.324;2023-07-31T01:48:26;18.10;99.90
22436;DHT22;11385;50.822;4.324;2023-07-31T01:50:53;18.20;99.90
22436;DHT22;11385;50.822;4.324;2023-07-31T01:53:19;18.20;99.90
22436;DHT22;11385;50.822;4.324;2023-07-31T01:55:46;18.10;99.90
22436;DHT22;11385;50.822;4.324;2023-07-31T01:58:12;18.10;99.90
22436;DHT22;11385;50.822;4.324;2023-07-31T02:00:39;18.00;99.90
22436;DHT22;11385;50.822;4.324;2023-07-31T02:03:06;18.00;99.90
22436;DHT22;11385;50.822;4.324;2023-07-31T02:05:32;17.90;99.90
22436;DHT22;11385;50.822;4.324;2023-07-31T02:07:59;17.90;99.90
22436;DHT22;11385;50.822;4.324;2023-07-31T02:10:25;17.90;99.90
22436;DHT22;11385;50.822;4.324;2023-07-31T02:12:52;17.90;99.90
22436;DHT22;11385;50.822;4.324;2023-07-31T02:15:19;18.00;99.90
22436;DHT22;11385;50.822;4.324;2023-07-31T02:17:45;18.10;99.90
22436;DHT22;11385;50.822;4.324;2023-07-31T02:20:12;18.10;99.90
22436;DHT22;11385;50.822;4.324;2023-07-31T02:22:38;18.20;99.90
22436;DHT22;11385;50.822;4.324;2023-07-31T02:25:05;18.20;99.90
22436;DHT22;11385;50.822;4.324;2023-07-31T02:27:32;18.10;99.90
22436;DHT22;11385;50.822;4.324;2023-07-31T02:29:58;17.90;99.90
22436;DHT22;11385;50.822;4.324;2023-07-31T02:32:25;18.00;99.90
22436;DHT22;11385;50.822;4.324;2023-07-31T02:34:52;18.00;99.90
22436;DHT22;11385;50.822;4.324;2023-07-31T02:37:18;18.10;99.90
22436;DHT22;11385;50.822;4.324;2023-07-31T02:39:45;18.20;99.90
22436;DHT22;11385;50.822;4.324;2023-07-31T02:42:12;18.10;99.90
22436;DHT22;11385;50.822;4.324;2023-07-31T02:44:40;18.10;99.90
22436;DHT22;11385;50.822;4.324;2023-07-31T02:47:06;18.10;99.90
22436;DHT22;11385;50.822;4.324;2023-07-31T02:49:33;18.20;99.90
22436;DHT22;11385;50.822;4.324;2023-07-31T02:52:00;18.30;99.90
22436;DHT22;11385;50.822;4.324;2023-07-31T02:54:26;18.40;99.90
22436;DHT22;11385;50.822;4.324;2023-07-31T02:56:53;18.30;99.90
22436;DHT22;11385;50.822;4.324;2023-07-31T02:59:20;18.20;99.90
22436;DHT22;11385;50.822;4.324;2023-07-31T03:01:46;18.20;99.90
22436;DHT22;11385;50.822;4.324;2023-07-31T03:04:13;18.20;99.90
22436;DHT22;11385;50.822;4.324;2023-07-31T03:06:40;18.20;99.90
22436;DHT22;11385;50.822;4.324;2023-07-31T03:09:06;18.20;99.90
22436;DHT22;11385;50.822;4.324;2023-07-31T03:11:33;18.20;99.90
22436;DHT22;11385;50.822;4.324;2023-07-31T03:13:59;18.20;99.90
22436;DHT22;11385;50.822;4.324;2023-07-31T03:16:26;18.20;99.90
22436;DHT22;11385;50.822;4.324;2023-07-31T03:18:53;18.20;99.90
22436;DHT22;11385;50.822;4.324;2023-07-31T03:21:20;18.30;99.90
22436;DHT22;11385;50.822;4.324;2023-07-31T03:23:47;18.20;99.90
22436;DHT22;11385;50.822;4.324;2023-07-31T03:26:13;17.80;99.90
22436;DHT22;11385;50.822;4.324;2023-07-31T03:28:40;17.70;99.90
22436;DHT22;11385;50.822;4.324;2023-07-31T03:31:06;17.60;99.90
22436;DHT22;11385;50.822;4.324;2023-07-31T03:33:34;17.50;99.90
22436;DHT22;11385;50.822;4.324;2023-07-31T03:36:01;17.50;99.90
22436;DHT22;11385;50.822;4.324;2023-07-31T03:38:28;17.50;99.90
22436;DHT22;11385;50.822;4.324;2023-07-31T03:40:55;17.50;99.90
22436;DHT22;11385;50.822;4.324;2023-07-31T03:43:21;17.50;99.90
22436;DHT22;11385;50.822;4.324;2023-07-31T03:45:48;17.60;99.90
22436;DHT22;11385;50.822;4.324;2023-07-31T03:48:15;17.60;99.90
22436;DHT22;11385;50.822;4.324;2023-07-31T03:50:42;17.50;99.90
22436;DHT22;11385;50.822;4.324;2023-07-31T03:53:09;17.50;99.90
22436;DHT22;11385;50.822;4.324;2023-07-31T03:55:35;17.50;99.90
22436;DHT22;11385;50.822;4.324;2023-07-31T03:58:02;17.50;99.90
22436;DHT22;11385;50.822;4.324;2023-07-31T04:00:29;17.40;99.90
22436;DHT22;11385;50.822;4.324;2023-07-31T04:02:55;17.30;99.90
22436;DHT22;11385;50.822;4.324;2023-07-31T04:05:22;17.40;99.90
22436;DHT22;11385;50.822;4.324;2023-07-31T04:07:49;17.20;99.90
22436;DHT22;11385;50.822;4.324;2023-07-31T04:10:15;17.20;99.90
22436;DHT22;11385;50.822;4.324;2023-07-31T04:12:42;17.20;99.90
22436;DHT22;11385;50.822;4.324;2023-07-31T04:15:09;17.20;99.90
22436;DHT22;11385;50.822;4.324;2023-07-31T04:17:36;17.20;99.90
22436;DHT22;11385;50.822;4.324;2023-07-31T04:20:03;17.30;99.90
22436;DHT22;11385;50.822;4.324;2023-07-31T04:22:29;17.30;99.90
22436;DHT22;11385;50.822;4.324;2023-07-31T04:24:56;17.40;99.90
22436;DHT22;11385;50.822;4.324;2023-07-31T04:27:23;17.40;99.90
22436;DHT22;11385;50.822;4.324;2023-07-31T04:29:49;17.30;99.90
22436;DHT22;11385;50.822;4.324;2023-07-31T04:32:16;17.30;99.90
22436;DHT22;11385;50.822;4.324;2023-07-31T04:34:43;17.30;99.90
22436;DHT22;11385;50.822;4.324;2023-07-31T04:37:10;17.20;99.90
22436;DHT22;11385;50.822;4.324;2023-07-31T04:39:37;17.20;99.90
22436;DHT22;11385;50.822;4.324;2023-07-31T04:42:03;17.20;99.90
22436;DHT22;11385;50.822;4.324;2023-07-31T04:44:30;17.30;99.90
22436;DHT22;11385;50.822;4.324;2023-07-31T04:46:57;17.40;99.90
22436;DHT22;11385;50.822;4.324;2023-07-31T04:49:23;17.50;99.90
22436;DHT22;11385;50.822;4.324;2023-07-31T04:51:50;17.50;99.90
22436;DHT22;11385;50.822;4.324;2023-07-31T04:54:16;17.40;99.90
22436;DHT22;11385;50.822;4.324;2023-07-31T04:56:43;17.50;99.90
22436;DHT22;11385;50.822;4.324;2023-07-31T04:59:10;17.40;99.90
22436;DHT22;11385;50.822;4.324;2023-07-31T05:01:36;17.30;99.90
22436;DHT22;11385;50.822;4.324;2023-07-31T05:04:03;17.30;99.90
22436;DHT22;11385;50.822;4.324;2023-07-31T05:06:30;17.30;99.90
22436;DHT22;11385;50.822;4.324;2023-07-31T05:08:56;17.20;99.90
22436;DHT22;11385;50.822;4.324;2023-07-31T05:11:23;17.10;99.90
22436;DHT22;11385;50.822;4.324;2023-07-31T05:13:49;17.10;99.90
22436;DHT22;11385;50.822;4.324;2023-07-31T05:16:16;17.20;99.90
22436;DHT22;11385;50.822;4.324;2023-07-31T05:18:43;17.10;99.90
22436;DHT22;11385;50.822;4.324;2023-07-31T05:21:09;17.10;99.90
22436;DHT22;11385;50.822;4.324;2023-07-31T05:23:36;17.10;99.90
22436;DHT22;11385;50.822;4.324;2023-07-31T05:26:04;17.10;99.90
22436;DHT22;11385;50.822;4.324;2023-07-31T05:28:31;17.10;99.90
22436;DHT22;11385;50.822;4.324;2023-07-31T05:31:00;17.00;99.90
22436;DHT22;11385;50.822;4.324;2023-07-31T05:33:27;17.00;99.90
22436;DHT22;11385;50.822;4.324;2023-07-31T05:35:54;16.90;99.90
22436;DHT22;11385;50.822;4.324;2023-07-31T05:38:21;17.00;99.90
22436;DHT22;11385;50.822;4.324;2023-07-31T05:40:48;16.90;99.90
22436;DHT22;11385;50.822;4.324;2023-07-31T05:43:15;16.90;99.90
22436;DHT22;11385;50.822;4.324;2023-07-31T05:45:43;17.00;99.90
22436;DHT22;11385;50.822;4.324;2023-07-31T05:48:10;17.00;99.90
22436;DHT22;11385;50.822;4.324;2023-07-31T05:50:36;16.90;99.90
22436;DHT22;11385;50.822;4.324;2023-07-31T05:53:05;17.00;99.90
22436;DHT22;11385;50.822;4.324;2023-07-31T05:55:32;17.00;99.90
22436;DHT22;11385;50.822;4.324;2023-07-31T05:57:59;17.00;99.90
22436;DHT22;11385;50.822;4.324;2023-07-31T06:00:25;17.10;99.90
22436;DHT22;11385;50.822;4.324;2023-07-31T06:02:53;17.00;99.90
22436;DHT22;11385;50.822;4.324;2023-07-31T06:05:20;17.10;99.90
22436;DHT22;11385;50.822;4.324;2023-07-31T06:07:47;17.20;99.90
22436;DHT22;11385;50.822;4.324;2023-07-31T06:10:13;17.20;99.90
22436;DHT22;11385;50.822;4.324;2023-07-31T06:12:40;17.20;99.90
22436;DHT22;11385;50.822;4.324;2023-07-31T06:15:07;17.10;99.90
22436;DHT22;11385;50.822;4.324;2023-07-31T06:17:33;17.20;99.90
22436;DHT22;11385;50.822;4.324;2023-07-31T06:20:00;17.20;99.90
22436;DHT22;11385;50.822;4.324;2023-07-31T06:22:27;17.30;99.90
22436;DHT22;11385;50.822;4.324;2023-07-31T06:24:54;17.40;99.90
22436;DHT22;11385;50.822;4.324;2023-07-31T06:27:21;17.30;99.90
22436;DHT22;11385;50.822;4.324;2023-07-31T06:29:47;17.30;99.90
22436;DHT22;11385;50.822;4.324;2023-07-31T06:32:14;17.30;99.90
22436;DHT22;11385;50.822;4.324;2023-07-31T06:34:41;17.40;99.90
22436;DHT22;11385;50.822;4.324;2023-07-31T06:37:07;17.40;99.90
22436;DHT22;11385;50.822;4.324;2023-07-31T06:39:34;17.50;99.90
22436;DHT22;11385;50.822;4.324;2023-07-31T06:42:01;17.50;99.90
22436;DHT22;11385;50.822;4.324;2023-07-31T06:44:27;17.50;99.90
22436;DHT22;11385;50.822;4.324;2023-07-31T06:46:54;17.50;99.90
22436;DHT22;11385;50.822;4.324;2023-07-31T06:49:21;17.40;99.90
22436;DHT22;11385;50.822;4.324;2023-07-31T06:51:47;17.50;99.90
22436;DHT22;11385;50.822;4.324;2023-07-31T06:54:14;17.70;99.90
22436;DHT22;11385;50.822;4.324;2023-07-31T06:56:41;17.90;99.90
22436;DHT22;11385;50.822;4.324;2023-07-31T06:59:07;17.90;99.90
22436;DHT22;11385;50.822;4.324;2023-07-31T07:01:34;18.10;99.90
22436;DHT22;11385;50.822;4.324;2023-07-31T07:04:01;18.10;99.90
22436;DHT22;11385;50.822;4.324;2023-07-31T07:06:27;18.20;99.90
22436;DHT22;11385;50.822;4.324;2023-07-31T07:08:54;18.20;99.90
22436;DHT22;11385;50.822;4.324;2023-07-31T07:11:20;18.40;99.90
22436;DHT22;11385;50.822;4.324;2023-07-31T07:13:47;18.20;99.90
22436;DHT22;11385;50.822;4.324;2023-07-31T07:16:14;18.20;99.90
22436;DHT22;11385;50.822;4.324;2023-07-31T07:18:40;18.10;99.90
22436;DHT22;11385;50.822;4.324;2023-07-31T07:21:07;18.30;99.90
22436;DHT22;11385;50.822;4.324;2023-07-31T07:23:34;18.10;99.90
22436;DHT22;11385;50.822;4.324;2023-07-31T07:26:01;18.10;99.90
22436;DHT22;11385;50.822;4.324;2023-07-31T07:28:28;18.10;99.90
22436;DHT22;11385;50.822;4.324;2023-07-31T07:30:55;18.20;99.90
22436;DHT22;11385;50.822;4.324;2023-07-31T07:33:21;18.10;99.90
22436;DHT22;11385;50.822;4.324;2023-07-31T07:35:48;18.30;99.90
22436;DHT22;11385;50.822;4.324;2023-07-31T07:38:15;18.30;99.90
22436;DHT22;11385;50.822;4.324;2023-07-31T07:40:42;18.30;99.90
22436;DHT22;11385;50.822;4.324;2023-07-31T07:43:08;18.40;99.90
22436;DHT22;11385;50.822;4.324;2023-07-31T07:45:35;18.40;99.90
22436;DHT22;11385;50.822;4.324;2023-07-31T07:48:01;18.30;99.90
22436;DHT22;11385;50.822;4.324;2023-07-31T07:50:29;18.10;99.90
22436;DHT22;11385;50.822;4.324;2023-07-31T07:52:55;18.00;99.90
22436;DHT22;11385;50.822;4.324;2023-07-31T07:55:22;18.10;99.90
22436;DHT22;11385;50.822;4.324;2023-07-31T07:57:49;18.20;99.90
22436;DHT22;11385;50.822;4.324;2023-07-31T08:00:16;18.30;99.90
22436;DHT22;11385;50.822;4.324;2023-07-31T08:02:43;18.50;99.90
22436;DHT22;11385;50.822;4.324;2023-07-31T08:05:10;18.40;99.90
22436;DHT22;11385;50.822;4.324;2023-07-31T08:07:37;18.60;99.90
22436;DHT22;11385;50.822;4.324;2023-07-31T08:10:03;18.60;99.90
22436;DHT22;11385;50.822;4.324;2023-07-31T08:12:30;18.50;99.90
22436;DHT22;11385;50.822;4.324;2023-07-31T08:14:57;18.50;99.90
22436;DHT22;11385;50.822;4.324;2023-07-31T08:17:26;18.30;99.90
22436;DHT22;11385;50.822;4.324;2023-07-31T08:19:52;18.50;99.90
22436;DHT22;11385;50.822;4.324;2023-07-31T08:22:19;18.50;99.90
22436;DHT22;11385;50.822;4.324;2023-07-31T08:24:45;18.30;99.90
22436;DHT22;11385;50.822;4.324;2023-07-31T08:27:12;18.20;99.90
22436;DHT22;11385;50.822;4.324;2023-07-31T08:29:39;18.20;99.90
22436;DHT22;11385;50.822;4.324;2023-07-31T08:32:05;18.10;99.90
22436;DHT22;11385;50.822;4.324;2023-07-31T08:34:32;18.10;99.90
22436;DHT22;11385;50.822;4.324;2023-07-31T08:36:59;18.00;99.90
22436;DHT22;11385;50.822;4.324;2023-07-31T08:39:25;18.20;99.90
22436;DHT22;11385;50.822;4.324;2023-07-31T08:41:57;18.30;99.90
22436;DHT22;11385;50.822;4.324;2023-07-31T08:44:25;18.20;99.90
22436;DHT22;11385;50.822;4.324;2023-07-31T08:46:51;18.00;99.90
22436;DHT22;11385;50.822;4.324;2023-07-31T08:49:20;18.20;99.90
22436;DHT22;11385;50.822;4.324;2023-07-31T08:51:50;18.40;99.90
22436;DHT22;11385;50.822;4.324;2023-07-31T08:54:16;18.60;99.90
22436;DHT22;11385;50.822;4.324;2023-07-31T08:56:44;18.50;99.90
22436;DHT22;11385;50.822;4.324;2023-07-31T08:59:11;18.50;99.90
22436;DHT22;11385;50.822;4.324;2023-07-31T09:01:43;18.80;99.90
22436;DHT22;11385;50.822;4.324;2023-07-31T09:04:10;18.80;99.90
22436;DHT22;11385;50.822;4.324;2023-07-31T09:06:39;19.00;99.90
22436;DHT22;11385;50.822;4.324;2023-07-31T09:09:06;18.90;99.90
22436;DHT22;11385;50.822;4.324;2023-07-31T09:11:33;18.80;99.90
22436;DHT22;11385;50.822;4.324;2023-07-31T09:14:01;18.80;99.90
22436;DHT22;11385;50.822;4.324;2023-07-31T09:16:30;18.80;99.90
22436;DHT22;11385;50.822;4.324;2023-07-31T09:19:00;18.90;99.90
22436;DHT22;11385;50.822;4.324;2023-07-31T09:21:30;18.90;99.90
22436;DHT22;11385;50.822;4.324;2023-07-31T09:23:57;19.10;99.90
22436;DHT22;11385;50.822;4.324;2023-07-31T09:26:30;19.10;99.90
22436;DHT22;11385;50.822;4.324;2023-07-31T09:28:58;19.10;99.90
22436;DHT22;11385;50.822;4.324;2023-07-31T09:34:04;18.90;99.90
22436;DHT22;11385;50.822;4.324;2023-07-31T09:36:31;18.60;99.90
22436;DHT22;11385;50.822;4.324;2023-07-31T09:39:02;18.50;99.90
22436;DHT22;11385;50.822;4.324;2023-07-31T09:41:30;18.50;99.90
22436;DHT22;11385;50.822;4.324;2023-07-31T09:43:57;18.50;99.90
22436;DHT22;11385;50.822;4.324;2023-07-31T09:46:26;18.50;99.90
22436;DHT22;11385;50.822;4.324;2023-07-31T09:51:28;18.50;99.90
22436;DHT22;11385;50.822;4.324;2023-07-31T09:53:57;18.70;99.90
22436;DHT22;11385;50.822;4.324;2023-07-31T09:56:24;18.70;99.90
22436;DHT22;11385;50.822;4.324;2023-07-31T09:58:52;18.80;99.90
22436;DHT22;11385;50.822;4.324;2023-07-31T10:01:19;18.90;99.90
22436;DHT22;11385;50.822;4.324;2023-07-31T10:03:46;18.90;99.90
22436;DHT22;11385;50.822;4.324;2023-07-31T10:06:14;18.90;99.90
22436;DHT22;11385;50.822;4.324;2023-07-31T10:08:43;18.80;99.90
22436;DHT22;11385;50.822;4.324;2023-07-31T10:11:12;18.70;99.90
22436;DHT22;11385;50.822;4.324;2023-07-31T10:13:41;18.60;99.90
22436;DHT22;11385;50.822;4.324;2023-07-31T10:16:09;18.80;99.90
22436;DHT22;11385;50.822;4.324;2023-07-31T10:18:37;18.90;99.90
22436;DHT22;11385;50.822;4.324;2023-07-31T10:21:05;18.90;99.90
22436;DHT22;11385;50.822;4.324;2023-07-31T10:23:32;18.60;99.90
22436;DHT22;11385;50.822;4.324;2023-07-31T10:26:01;18.70;99.90
22436;DHT22;11385;50.822;4.324;2023-07-31T10:28:29;18.80;99.90
22436;DHT22;11385;50.822;4.324;2023-07-31T10:30:58;18.90;99.90
22436;DHT22;11385;50.822;4.324;2023-07-31T10:33:25;19.00;99.90
22436;DHT22;11385;50.822;4.324;2023-07-31T10:36:31;18.80;99.90
22436;DHT22;11385;50.822;4.324;2023-07-31T10:38:43;18.80;99.90
22436;DHT22;11385;50.822;4.324;2023-07-31T10:41:10;18.80;99.90
22436;DHT22;11385;50.822;4.324;2023-07-31T10:43:37;18.70;99.90
22436;DHT22;11385;50.822;4.324;2023-07-31T10:46:07;18.80;99.90
22436;DHT22;11385;50.822;4.324;2023-07-31T10:48:36;18.90;99.90
22436;DHT22;11385;50.822;4.324;2023-07-31T10:51:07;19.10;99.90
22436;DHT22;11385;50.822;4.324;2023-07-31T10:53:35;19.30;99.90
22436;DHT22;11385;50.822;4.324;2023-07-31T10:56:03;19.50;99.90
22436;DHT22;11385;50.822;4.324;2023-07-31T10:58:31;19.70;99.90
22436;DHT22;11385;50.822;4.324;2023-07-31T11:01:01;19.70;99.90
22436;DHT22;11385;50.822;4.324;2023-07-31T11:03:49;20.10;99.90
22436;DHT22;11385;50.822;4.324;2023-07-31T11:06:19;20.00;99.90
22436;DHT22;11385;50.822;4.324;2023-07-31T11:08:48;19.80;99.90
22436;DHT22;11385;50.822;4.324;2023-07-31T11:11:16;19.90;99.90
22436;DHT22;11385;50.822;4.324;2023-07-31T11:13:51;20.00;99.90
22436;DHT22;11385;50.822;4.324;2023-07-31T11:16:21;20.10;99.90
22436;DHT22;11385;50.822;4.324;2023-07-31T11:18:49;20.10;99.90
22436;DHT22;11385;50.822;4.324;2023-07-31T11:21:19;20.10;99.90
22436;DHT22;11385;50.822;4.324;2023-07-31T11:23:48;20.00;99.90
22436;DHT22;11385;50.822;4.324;2023-07-31T11:26:16;20.10;99.90
22436;DHT22;11385;50.822;4.324;2023-07-31T11:28:43;20.10;99.90
22436;DHT22;11385;50.822;4.324;2023-07-31T11:31:10;19.90;99.90
22436;DHT22;11385;50.822;4.324;2023-07-31T11:33:37;20.00;99.90
22436;DHT22;11385;50.822;4.324;2023-07-31T11:36:04;20.10;99.90
22436;DHT22;11385;50.822;4.324;2023-07-31T11:38:32;20.20;99.90
22436;DHT22;11385;50.822;4.324;2023-07-31T11:41:02;20.50;99.90
22436;DHT22;11385;50.822;4.324;2023-07-31T11:43:31;20.40;99.90
22436;DHT22;11385;50.822;4.324;2023-07-31T11:45:59;20.40;99.90
22436;DHT22;11385;50.822;4.324;2023-07-31T11:48:30;20.40;99.90
22436;DHT22;11385;50.822;4.324;2023-07-31T11:51:01;20.30;99.90
22436;DHT22;11385;50.822;4.324;2023-07-31T11:53:44;20.30;99.90
22436;DHT22;11385;50.822;4.324;2023-07-31T11:56:14;20.30;99.90
22436;DHT22;11385;50.822;4.324;2023-07-31T11:58:43;20.20;99.90
22436;DHT22;11385;50.822;4.324;2023-07-31T12:01:13;20.20;99.90
22436;DHT22;11385;50.822;4.324;2023-07-31T12:03:40;20.20;99.90
22436;DHT22;11385;50.822;4.324;2023-07-31T12:06:08;20.40;99.90
22436;DHT22;11385;50.822;4.324;2023-07-31T12:08:36;20.70;99.90
22436;DHT22;11385;50.822;4.324;2023-07-31T12:11:04;20.90;99.90
22436;DHT22;11385;50.822;4.324;2023-07-31T12:13:33;21.00;99.90
22436;DHT22;11385;50.822;4.324;2023-07-31T12:16:02;21.00;99.90
22436;DHT22;11385;50.822;4.324;2023-07-31T12:18:34;20.70;99.90
22436;DHT22;11385;50.822;4.324;2023-07-31T12:21:04;20.60;99.90
22436;DHT22;11385;50.822;4.324;2023-07-31T12:23:32;20.70;99.90
22436;DHT22;11385;50.822;4.324;2023-07-31T12:26:04;20.70;99.90
22436;DHT22;11385;50.822;4.324;2023-07-31T12:28:40;20.90;99.90
22436;DHT22;11385;50.822;4.324;2023-07-31T12:31:08;20.80;99.90
22436;DHT22;11385;50.822;4.324;2023-07-31T12:33:36;20.90;99.90
22436;DHT22;11385;50.822;4.324;2023-07-31T12:36:08;20.90;99.90
22436;DHT22;11385;50.822;4.324;2023-07-31T12:38:35;20.70;99.90
22436;DHT22;11385;50.822;4.324;2023-07-31T12:41:02;20.60;99.90
22436;DHT22;11385;50.822;4.324;2023-07-31T12:43:28;20.60;99.90
22436;DHT22;11385;50.822;4.324;2023-07-31T12:45:55;20.70;99.90
22436;DHT22;11385;50.822;4.324;2023-07-31T12:48:22;21.10;99.90
22436;DHT22;11385;50.822;4.324;2023-07-31T12:50:49;21.40;99.90
22436;DHT22;11385;50.822;4.324;2023-07-31T12:53:16;21.40;99.90
22436;DHT22;11385;50.822;4.324;2023-07-31T12:55:42;21.30;99.90
22436;DHT22;11385;50.822;4.324;2023-07-31T12:58:10;21.40;99.90
22436;DHT22;11385;50.822;4.324;2023-07-31T13:00:36;21.50;99.90
22436;DHT22;11385;50.822;4.324;2023-07-31T13:03:04;21.40;99.90
22436;DHT22;11385;50.822;4.324;2023-07-31T13:05:31;21.20;99.90
22436;DHT22;11385;50.822;4.324;2023-07-31T13:07:57;20.90;99.90
22436;DHT22;11385;50.822;4.324;2023-07-31T13:10:24;20.90;99.90
22436;DHT22;11385;50.822;4.324;2023-07-31T13:12:52;20.90;99.90
22436;DHT22;11385;50.822;4.324;2023-07-31T13:15:19;20.90;99.90
22436;DHT22;11385;50.822;4.324;2023-07-31T13:17:46;20.80;99.90
22436;DHT22;11385;50.822;4.324;2023-07-31T13:20:13;20.70;99.90
22436;DHT22;11385;50.822;4.324;2023-07-31T13:22:40;20.60;99.90
22436;DHT22;11385;50.822;4.324;2023-07-31T13:25:07;20.40;99.90
22436;DHT22;11385;50.822;4.324;2023-07-31T13:27:35;20.30;99.90
22436;DHT22;11385;50.822;4.324;2023-07-31T13:30:02;19.90;99.90
22436;DHT22;11385;50.822;4.324;2023-07-31T13:32:29;19.60;99.90
22436;DHT22;11385;50.822;4.324;2023-07-31T13:34:56;19.40;99.90
22436;DHT22;11385;50.822;4.324;2023-07-31T13:37:23;19.20;99.90
22436;DHT22;11385;50.822;4.324;2023-07-31T13:39:49;19.00;99.90
22436;DHT22;11385;50.822;4.324;2023-07-31T13:42:16;19.00;99.90
22436;DHT22;11385;50.822;4.324;2023-07-31T13:44:43;19.20;99.90
22436;DHT22;11385;50.822;4.324;2023-07-31T13:47:10;19.30;99.90
22436;DHT22;11385;50.822;4.324;2023-07-31T13:49:36;19.30;99.90
22436;DHT22;11385;50.822;4.324;2023-07-31T13:52:05;19.30;99.90
22436;DHT22;11385;50.822;4.324;2023-07-31T13:54:32;19.20;99.90
22436;DHT22;11385;50.822;4.324;2023-07-31T13:56:58;19.10;99.90
22436;DHT22;11385;50.822;4.324;2023-07-31T13:59:25;19.00;99.90
22436;DHT22;11385;50.822;4.324;2023-07-31T14:01:52;19.00;99.90
22436;DHT22;11385;50.822;4.324;2023-07-31T14:04:19;18.90;99.90
22436;DHT22;11385;50.822;4.324;2023-07-31T14:06:46;18.90;99.90
22436;DHT22;11385;50.822;4.324;2023-07-31T14:09:14;18.90;99.90
22436;DHT22;11385;50.822;4.324;2023-07-31T14:11:40;18.90;99.90
22436;DHT22;11385;50.822;4.324;2023-07-31T14:14:09;18.90;99.90
22436;DHT22;11385;50.822;4.324;2023-07-31T14:16:35;19.00;99.90
22436;DHT22;11385;50.822;4.324;2023-07-31T14:19:02;18.90;99.90
22436;DHT22;11385;50.822;4.324;2023-07-31T14:21:29;18.80;99.90
22436;DHT22;11385;50.822;4.324;2023-07-31T14:23:55;18.90;99.90
22436;DHT22;11385;50.822;4.324;2023-07-31T14:26:22;18.90;99.90
22436;DHT22;11385;50.822;4.324;2023-07-31T14:28:49;18.80;99.90
22436;DHT22;11385;50.822;4.324;2023-07-31T14:31:15;18.90;99.90
22436;DHT22;11385;50.822;4.324;2023-07-31T14:33:42;18.90;99.90
22436;DHT22;11385;50.822;4.324;2023-07-31T14:36:10;19.00;99.90
22436;DHT22;11385;50.822;4.324;2023-07-31T14:38:36;19.00;99.90
22436;DHT22;11385;50.822;4.324;2023-07-31T14:41:03;18.90;99.90
22436;DHT22;11385;50.822;4.324;2023-07-31T14:43:29;18.70;99.90
22436;DHT22;11385;50.822;4.324;2023-07-31T14:45:56;18.70;99.90
22436;DHT22;11385;50.822;4.324;2023-07-31T14:48:26;18.70;99.90
22436;DHT22;11385;50.822;4.324;2023-07-31T14:50:55;18.70;99.90
22436;DHT22;11385;50.822;4.324;2023-07-31T14:53:22;18.70;99.90
22436;DHT22;11385;50.822;4.324;2023-07-31T14:55:48;18.70;99.90
22436;DHT22;11385;50.822;4.324;2023-07-31T14:58:15;18.70;99.90
22436;DHT22;11385;50.822;4.324;2023-07-31T15:00:43;18.70;99.90
22436;DHT22;11385;50.822;4.324;2023-07-31T15:03:10;18.70;99.90
22436;DHT22;11385;50.822;4.324;2023-07-31T15:05:36;18.70;99.90
22436;DHT22;11385;50.822;4.324;2023-07-31T15:08:03;18.60;99.90
22436;DHT22;11385;50.822;4.324;2023-07-31T15:10:30;18.60;99.90
22436;DHT22;11385;50.822;4.324;2023-07-31T15:12:56;18.50;99.90
22436;DHT22;11385;50.822;4.324;2023-07-31T15:15:23;18.50;99.90
22436;DHT22;11385;50.822;4.324;2023-07-31T15:17:50;18.60;99.90
22436;DHT22;11385;50.822;4.324;2023-07-31T15:20:16;18.50;99.90
22436;DHT22;11385;50.822;4.324;2023-07-31T15:22:43;18.50;99.90
22436;DHT22;11385;50.822;4.324;2023-07-31T15:25:10;18.50;99.90
22436;DHT22;11385;50.822;4.324;2023-07-31T15:27:36;18.50;99.90
22436;DHT22;11385;50.822;4.324;2023-07-31T15:30:03;18.50;99.90
22436;DHT22;11385;50.822;4.324;2023-07-31T15:32:31;18.50;99.90
22436;DHT22;11385;50.822;4.324;2023-07-31T15:34:57;18.60;99.90
22436;DHT22;11385;50.822;4.324;2023-07-31T15:37:24;18.50;99.90